sensor_id;sensor_type;location;lat;lon;timestamp;P1;durP1;ratioP1;P2;durP2;ratioP2
4194;SDS011;2111;48.050;11.626;2022-08-19T00:01:47;1.80;;;1.70;;
4194;SDS011;2111;48.050;11.626;2022-08-19T00:04:19;2.05;;;1.50;;
4194;SDS011;2111;48.050;11.626;2022-08-19T00:06:47;2.25;;;1.80;;
4194;SDS011;2111;48.050;11.626;2022-08-19T00:09:15;1.45;;;1.33;;
4194;SDS011;2111;48.050;11.626;2022-08-19T00:11:45;1.45;;;1.35;;
4194;SDS011;2111;48.050;11.626;2022-08-19T00:14:13;1.67;;;1.58;;
4194;SDS011;2111;48.050;11.626;2022-08-19T00:16:42;1.30;;;1.20;;
4194;SDS011;2111;48.050;11.626;2022-08-19T00:19:10;1.38;;;1.27;;
4194;SDS011;2111;48.050;11.626;2022-08-19T00:21:37;1.40;;;1.30;;
4194;SDS011;2111;48.050;11.626;2022-08-19T00:24:06;1.63;;;1.52;;
4194;SDS011;2111;48.050;11.626;2022-08-19T00:26:34;1.55;;;1.17;;
4194;SDS011;2111;48.050;11.626;2022-08-19T00:29:02;2.00;;;1.70;;
4194;SDS011;2111;48.050;11.626;2022-08-19T00:31:30;2.10;;;1.50;;
4194;SDS011;2111;48.050;11.626;2022-08-19T00:33:57;1.63;;;1.52;;
4194;SDS011;2111;48.050;11.626;2022-08-19T00:36:25;1.60;;;1.27;;
4194;SDS011;2111;48.050;11.626;2022-08-19T00:38:52;1.20;;;1.10;;
4194;SDS011;2111;48.050;11.626;2022-08-19T00:41:19;1.35;;;1.25;;
4194;SDS011;2111;48.050;11.626;2022-08-19T00:46:33;1.60;;;1.33;;
4194;SDS011;2111;48.050;11.626;2022-08-19T00:49:15;1.55;;;1.45;;
4194;SDS011;2111;48.050;11.626;2022-08-19T00:51:46;1.58;;;1.48;;
4194;SDS011;2111;48.050;11.626;2022-08-19T00:54:18;1.50;;;1.40;;
4194;SDS011;2111;48.050;11.626;2022-08-19T00:56:53;3.35;;;1.50;;
4194;SDS011;2111;48.050;11.626;2022-08-19T00:59:21;1.45;;;1.35;;
4194;SDS011;2111;48.050;11.626;2022-08-19T01:02:09;1.67;;;1.58;;
4194;SDS011;2111;48.050;11.626;2022-08-19T01:04:35;1.33;;;1.13;;
4194;SDS011;2111;48.050;11.626;2022-08-19T01:07:02;1.70;;;1.42;;
4194;SDS011;2111;48.050;11.626;2022-08-19T01:09:29;1.35;;;1.25;;
4194;SDS011;2111;48.050;11.626;2022-08-19T01:11:57;1.73;;;1.50;;
4194;SDS011;2111;48.050;11.626;2022-08-19T01:14:24;1.70;;;1.60;;
4194;SDS011;2111;48.050;11.626;2022-08-19T01:16:52;1.38;;;1.27;;
4194;SDS011;2111;48.050;11.626;2022-08-19T01:19:23;1.02;;;1.02;;
4194;SDS011;2111;48.050;11.626;2022-08-19T01:21:55;1.80;;;1.30;;
4194;SDS011;2111;48.050;11.626;2022-08-19T01:24:39;1.67;;;1.27;;
4194;SDS011;2111;48.050;11.626;2022-08-19T01:27:15;1.65;;;1.55;;
4194;SDS011;2111;48.050;11.626;2022-08-19T01:29:43;1.48;;;1.38;;
4194;SDS011;2111;48.050;11.626;2022-08-19T01:32:12;1.73;;;1.63;;
4194;SDS011;2111;48.050;11.626;2022-08-19T01:34:58;1.55;;;1.45;;
4194;SDS011;2111;48.050;11.626;2022-08-19T01:37:28;2.40;;;1.40;;
4194;SDS011;2111;48.050;11.626;2022-08-19T01:39:56;2.00;;;1.90;;
4194;SDS011;2111;48.050;11.626;2022-08-19T01:42:32;1.75;;;1.50;;
4194;SDS011;2111;48.050;11.626;2022-08-19T01:45:01;1.95;;;1.80;;
4194;SDS011;2111;48.050;11.626;2022-08-19T01:47:28;1.23;;;1.13;;
4194;SDS011;2111;48.050;11.626;2022-08-19T01:49:55;1.40;;;1.30;;
4194;SDS011;2111;48.050;11.626;2022-08-19T01:52:22;2.70;;;1.45;;
4194;SDS011;2111;48.050;11.626;2022-08-19T01:54:49;1.52;;;1.42;;
4194;SDS011;2111;48.050;11.626;2022-08-19T01:57:16;1.60;;;1.50;;
4194;SDS011;2111;48.050;11.626;2022-08-19T01:59:43;1.63;;;1.20;;
4194;SDS011;2111;48.050;11.626;2022-08-19T02:02:11;1.70;;;1.60;;
4194;SDS011;2111;48.050;11.626;2022-08-19T02:04:39;2.90;;;1.90;;
4194;SDS011;2111;48.050;11.626;2022-08-19T02:07:06;2.22;;;1.58;;
4194;SDS011;2111;48.050;11.626;2022-08-19T02:09:34;1.60;;;1.50;;
4194;SDS011;2111;48.050;11.626;2022-08-19T02:12:02;1.67;;;1.58;;
4194;SDS011;2111;48.050;11.626;2022-08-19T02:14:29;1.35;;;1.25;;
4194;SDS011;2111;48.050;11.626;2022-08-19T02:16:56;1.45;;;1.33;;
4194;SDS011;2111;48.050;11.626;2022-08-19T02:19:23;1.88;;;1.42;;
4194;SDS011;2111;48.050;11.626;2022-08-19T02:21:49;2.17;;;1.63;;
4194;SDS011;2111;48.050;11.626;2022-08-19T02:24:16;1.40;;;1.30;;
4194;SDS011;2111;48.050;11.626;2022-08-19T02:26:43;2.25;;;1.30;;
4194;SDS011;2111;48.050;11.626;2022-08-19T02:29:10;1.42;;;1.23;;
4194;SDS011;2111;48.050;11.626;2022-08-19T02:31:36;2.00;;;1.33;;
4194;SDS011;2111;48.050;11.626;2022-08-19T02:34:04;1.48;;;1.38;;
4194;SDS011;2111;48.050;11.626;2022-08-19T02:36:31;1.92;;;1.73;;
4194;SDS011;2111;48.050;11.626;2022-08-19T02:38:58;1.80;;;1.70;;
4194;SDS011;2111;48.050;11.626;2022-08-19T02:41:26;1.30;;;1.20;;
4194;SDS011;2111;48.050;11.626;2022-08-19T02:44:00;1.38;;;1.27;;
4194;SDS011;2111;48.050;11.626;2022-08-19T02:46:47;1.50;;;1.40;;
4194;SDS011;2111;48.050;11.626;2022-08-19T02:49:17;2.80;;;1.15;;
4194;SDS011;2111;48.050;11.626;2022-08-19T02:51:45;2.50;;;1.23;;
4194;SDS011;2111;48.050;11.626;2022-08-19T02:54:12;1.20;;;1.10;;
4194;SDS011;2111;48.050;11.626;2022-08-19T02:56:40;3.38;;;1.50;;
4194;SDS011;2111;48.050;11.626;2022-08-19T02:59:08;2.65;;;1.15;;
4194;SDS011;2111;48.050;11.626;2022-08-19T03:01:37;1.20;;;1.10;;
4194;SDS011;2111;48.050;11.626;2022-08-19T03:04:07;1.58;;;1.17;;
4194;SDS011;2111;48.050;11.626;2022-08-19T03:06:39;0.95;;;0.95;;
4194;SDS011;2111;48.050;11.626;2022-08-19T03:09:07;1.17;;;1.17;;
4194;SDS011;2111;48.050;11.626;2022-08-19T03:11:34;0.93;;;0.90;;
4194;SDS011;2111;48.050;11.626;2022-08-19T03:14:02;0.90;;;0.90;;
4194;SDS011;2111;48.050;11.626;2022-08-19T03:16:31;1.05;;;1.05;;
4194;SDS011;2111;48.050;11.626;2022-08-19T03:19:00;1.08;;;1.00;;
4194;SDS011;2111;48.050;11.626;2022-08-19T03:21:29;1.20;;;1.10;;
4194;SDS011;2111;48.050;11.626;2022-08-19T03:23:59;1.98;;;1.17;;
4194;SDS011;2111;48.050;11.626;2022-08-19T03:26:27;1.17;;;1.08;;
4194;SDS011;2111;48.050;11.626;2022-08-19T03:28:55;1.63;;;1.20;;
4194;SDS011;2111;48.050;11.626;2022-08-19T03:31:24;1.15;;;1.08;;
4194;SDS011;2111;48.050;11.626;2022-08-19T03:34:14;0.73;;;0.73;;
4194;SDS011;2111;48.050;11.626;2022-08-19T03:36:44;1.48;;;1.10;;
4194;SDS011;2111;48.050;11.626;2022-08-19T03:39:11;1.35;;;1.00;;
4194;SDS011;2111;48.050;11.626;2022-08-19T03:41:39;3.08;;;1.90;;
4194;SDS011;2111;48.050;11.626;2022-08-19T03:44:11;1.20;;;1.10;;
4194;SDS011;2111;48.050;11.626;2022-08-19T03:46:44;1.08;;;1.05;;
4194;SDS011;2111;48.050;11.626;2022-08-19T03:49:12;2.28;;;1.08;;
4194;SDS011;2111;48.050;11.626;2022-08-19T03:51:40;1.08;;;1.00;;
4194;SDS011;2111;48.050;11.626;2022-08-19T03:54:08;1.55;;;1.10;;
4194;SDS011;2111;48.050;11.626;2022-08-19T03:56:37;1.20;;;1.20;;
4194;SDS011;2111;48.050;11.626;2022-08-19T03:59:06;1.42;;;1.33;;
4194;SDS011;2111;48.050;11.626;2022-08-19T04:01:36;2.60;;;1.05;;
4194;SDS011;2111;48.050;11.626;2022-08-19T04:04:03;1.30;;;1.20;;
4194;SDS011;2111;48.050;11.626;2022-08-19T04:06:33;2.97;;;1.45;;
4194;SDS011;2111;48.050;11.626;2022-08-19T04:09:05;1.30;;;1.10;;
4194;SDS011;2111;48.050;11.626;2022-08-19T04:11:40;1.27;;;1.10;;
4194;SDS011;2111;48.050;11.626;2022-08-19T04:14:14;0.90;;;0.82;;
4194;SDS011;2111;48.050;11.626;2022-08-19T04:16:42;1.23;;;1.13;;
4194;SDS011;2111;48.050;11.626;2022-08-19T04:19:10;0.82;;;0.82;;
4194;SDS011;2111;48.050;11.626;2022-08-19T04:21:37;1.20;;;1.10;;
4194;SDS011;2111;48.050;11.626;2022-08-19T04:24:04;1.67;;;0.85;;
4194;SDS011;2111;48.050;11.626;2022-08-19T04:26:34;2.53;;;1.50;;
4194;SDS011;2111;48.050;11.626;2022-08-19T04:29:04;1.33;;;1.23;;
4194;SDS011;2111;48.050;11.626;2022-08-19T04:31:37;2.38;;;1.40;;
4194;SDS011;2111;48.050;11.626;2022-08-19T04:34:05;1.27;;;1.17;;
4194;SDS011;2111;48.050;11.626;2022-08-19T04:36:37;1.60;;;1.40;;
4194;SDS011;2111;48.050;11.626;2022-08-19T04:39:12;1.30;;;1.20;;
4194;SDS011;2111;48.050;11.626;2022-08-19T04:41:41;1.20;;;1.05;;
4194;SDS011;2111;48.050;11.626;2022-08-19T04:44:29;1.30;;;1.20;;
4194;SDS011;2111;48.050;11.626;2022-08-19T04:46:58;1.20;;;1.10;;
4194;SDS011;2111;48.050;11.626;2022-08-19T04:49:26;1.30;;;1.20;;
4194;SDS011;2111;48.050;11.626;2022-08-19T04:51:53;1.42;;;1.33;;
4194;SDS011;2111;48.050;11.626;2022-08-19T04:54:22;1.48;;;1.38;;
4194;SDS011;2111;48.050;11.626;2022-08-19T04:57:04;1.48;;;1.30;;
4194;SDS011;2111;48.050;11.626;2022-08-19T04:59:33;5.78;;;1.20;;
4194;SDS011;2111;48.050;11.626;2022-08-19T05:02:00;1.88;;;1.17;;
4194;SDS011;2111;48.050;11.626;2022-08-19T05:04:27;1.50;;;1.30;;
4194;SDS011;2111;48.050;11.626;2022-08-19T05:06:57;1.55;;;1.35;;
4194;SDS011;2111;48.050;11.626;2022-08-19T05:09:26;1.80;;;0.95;;
4194;SDS011;2111;48.050;11.626;2022-08-19T05:12:13;2.17;;;1.42;;
4194;SDS011;2111;48.050;11.626;2022-08-19T05:14:41;1.30;;;1.15;;
4194;SDS011;2111;48.050;11.626;2022-08-19T05:17:08;1.92;;;1.13;;
4194;SDS011;2111;48.050;11.626;2022-08-19T05:19:55;1.58;;;1.10;;
4194;SDS011;2111;48.050;11.626;2022-08-19T05:22:43;1.27;;;1.17;;
4194;SDS011;2111;48.050;11.626;2022-08-19T05:25:13;2.00;;;1.33;;
4194;SDS011;2111;48.050;11.626;2022-08-19T05:27:44;1.20;;;1.10;;
4194;SDS011;2111;48.050;11.626;2022-08-19T05:30:11;1.40;;;1.17;;
4194;SDS011;2111;48.050;11.626;2022-08-19T05:32:38;1.65;;;1.45;;
4194;SDS011;2111;48.050;11.626;2022-08-19T05:35:06;3.47;;;1.23;;
4194;SDS011;2111;48.050;11.626;2022-08-19T05:37:33;0.80;;;0.80;;
4194;SDS011;2111;48.050;11.626;2022-08-19T05:40:00;2.08;;;1.10;;
4194;SDS011;2111;48.050;11.626;2022-08-19T05:42:27;1.30;;;1.20;;
4194;SDS011;2111;48.050;11.626;2022-08-19T05:44:54;2.13;;;1.10;;
4194;SDS011;2111;48.050;11.626;2022-08-19T05:47:22;2.10;;;0.93;;
4194;SDS011;2111;48.050;11.626;2022-08-19T05:49:49;1.80;;;1.33;;
4194;SDS011;2111;48.050;11.626;2022-08-19T05:52:17;1.17;;;1.08;;
4194;SDS011;2111;48.050;11.626;2022-08-19T05:54:44;1.25;;;1.15;;
4194;SDS011;2111;48.050;11.626;2022-08-19T05:57:16;1.33;;;1.23;;
4194;SDS011;2111;48.050;11.626;2022-08-19T05:59:44;1.35;;;1.20;;
4194;SDS011;2111;48.050;11.626;2022-08-19T06:02:23;2.78;;;1.50;;
4194;SDS011;2111;48.050;11.626;2022-08-19T06:04:51;1.80;;;1.67;;
4194;SDS011;2111;48.050;11.626;2022-08-19T06:07:18;1.67;;;1.27;;
4194;SDS011;2111;48.050;11.626;2022-08-19T06:09:45;1.63;;;1.25;;
4194;SDS011;2111;48.050;11.626;2022-08-19T06:12:26;2.03;;;1.30;;
4194;SDS011;2111;48.050;11.626;2022-08-19T06:14:54;1.35;;;1.25;;
4194;SDS011;2111;48.050;11.626;2022-08-19T06:17:26;1.40;;;1.30;;
4194;SDS011;2111;48.050;11.626;2022-08-19T06:19:55;1.15;;;1.05;;
4194;SDS011;2111;48.050;11.626;2022-08-19T06:22:22;1.40;;;1.30;;
4194;SDS011;2111;48.050;11.626;2022-08-19T06:24:49;1.35;;;1.25;;
4194;SDS011;2111;48.050;11.626;2022-08-19T06:27:18;1.55;;;1.45;;
4194;SDS011;2111;48.050;11.626;2022-08-19T06:29:46;1.67;;;1.58;;
4194;SDS011;2111;48.050;11.626;2022-08-19T06:32:14;1.60;;;1.50;;
4194;SDS011;2111;48.050;11.626;2022-08-19T06:34:42;1.98;;;1.80;;
4194;SDS011;2111;48.050;11.626;2022-08-19T06:37:09;2.13;;;1.90;;
4194;SDS011;2111;48.050;11.626;2022-08-19T06:39:37;4.40;;;1.77;;
4194;SDS011;2111;48.050;11.626;2022-08-19T06:42:06;1.75;;;1.65;;
4194;SDS011;2111;48.050;11.626;2022-08-19T06:44:36;1.73;;;1.50;;
4194;SDS011;2111;48.050;11.626;2022-08-19T06:47:08;2.10;;;1.80;;
4194;SDS011;2111;48.050;11.626;2022-08-19T06:49:41;1.80;;;1.60;;
4194;SDS011;2111;48.050;11.626;2022-08-19T06:52:10;3.63;;;1.98;;
4194;SDS011;2111;48.050;11.626;2022-08-19T06:54:40;2.17;;;1.98;;
4194;SDS011;2111;48.050;11.626;2022-08-19T06:57:22;2.53;;;2.33;;
4194;SDS011;2111;48.050;11.626;2022-08-19T06:59:49;2.17;;;1.98;;
4194;SDS011;2111;48.050;11.626;2022-08-19T07:02:16;3.30;;;2.20;;
4194;SDS011;2111;48.050;11.626;2022-08-19T07:04:43;3.20;;;2.90;;
4194;SDS011;2111;48.050;11.626;2022-08-19T07:07:11;3.42;;;2.38;;
4194;SDS011;2111;48.050;11.626;2022-08-19T07:09:46;2.35;;;2.15;;
4194;SDS011;2111;48.050;11.626;2022-08-19T07:12:25;2.63;;;2.28;;
4194;SDS011;2111;48.050;11.626;2022-08-19T07:15:02;3.95;;;2.97;;
4194;SDS011;2111;48.050;11.626;2022-08-19T07:36:15;5.53;;;5.00;;
4194;SDS011;2111;48.050;11.626;2022-08-19T07:38:48;9.05;;;5.78;;
4194;SDS011;2111;48.050;11.626;2022-08-19T07:41:22;8.18;;;6.13;;
4194;SDS011;2111;48.050;11.626;2022-08-19T07:43:50;7.43;;;5.20;;
4194;SDS011;2111;48.050;11.626;2022-08-19T07:46:18;6.90;;;5.95;;
4194;SDS011;2111;48.050;11.626;2022-08-19T07:48:47;8.10;;;6.15;;
4194;SDS011;2111;48.050;11.626;2022-08-19T07:51:17;8.07;;;5.95;;
4194;SDS011;2111;48.050;11.626;2022-08-19T07:54:02;8.20;;;5.05;;
4194;SDS011;2111;48.050;11.626;2022-08-19T07:56:29;8.55;;;6.13;;
4194;SDS011;2111;48.050;11.626;2022-08-19T07:58:56;6.88;;;5.55;;
4194;SDS011;2111;48.050;11.626;2022-08-19T08:01:25;6.72;;;6.03;;
4194;SDS011;2111;48.050;11.626;2022-08-19T08:03:54;11.15;;;6.45;;
4194;SDS011;2111;48.050;11.626;2022-08-19T08:06:41;8.15;;;6.22;;
4194;SDS011;2111;48.050;11.626;2022-08-19T08:09:29;7.65;;;6.00;;
4194;SDS011;2111;48.050;11.626;2022-08-19T08:12:00;8.52;;;6.20;;
4194;SDS011;2111;48.050;11.626;2022-08-19T08:14:59;8.60;;;6.75;;
4194;SDS011;2111;48.050;11.626;2022-08-19T08:17:33;9.20;;;6.38;;
4194;SDS011;2111;48.050;11.626;2022-08-19T08:20:17;9.40;;;6.35;;
4194;SDS011;2111;48.050;11.626;2022-08-19T08:22:45;9.27;;;6.32;;
4194;SDS011;2111;48.050;11.626;2022-08-19T08:25:31;8.32;;;6.03;;
4194;SDS011;2111;48.050;11.626;2022-08-19T08:28:00;9.80;;;7.05;;
4194;SDS011;2111;48.050;11.626;2022-08-19T08:30:28;9.80;;;6.90;;
4194;SDS011;2111;48.050;11.626;2022-08-19T08:32:58;10.68;;;6.82;;
4194;SDS011;2111;48.050;11.626;2022-08-19T08:35:27;8.63;;;6.65;;
4194;SDS011;2111;48.050;11.626;2022-08-19T08:37:55;7.15;;;6.10;;
4194;SDS011;2111;48.050;11.626;2022-08-19T08:40:26;8.55;;;6.07;;
4194;SDS011;2111;48.050;11.626;2022-08-19T08:43:03;8.90;;;6.22;;
4194;SDS011;2111;48.050;11.626;2022-08-19T08:46:00;9.27;;;6.43;;
4194;SDS011;2111;48.050;11.626;2022-08-19T08:48:45;6.88;;;5.88;;
4194;SDS011;2111;48.050;11.626;2022-08-19T08:51:19;6.65;;;5.93;;
4194;SDS011;2111;48.050;11.626;2022-08-19T08:53:48;6.65;;;5.25;;
4194;SDS011;2111;48.050;11.626;2022-08-19T08:56:21;5.63;;;4.85;;
4194;SDS011;2111;48.050;11.626;2022-08-19T08:58:51;5.55;;;4.95;;
4194;SDS011;2111;48.050;11.626;2022-08-19T09:01:27;7.90;;;5.25;;
4194;SDS011;2111;48.050;11.626;2022-08-19T09:03:56;7.60;;;6.68;;
4194;SDS011;2111;48.050;11.626;2022-08-19T09:06:32;6.63;;;5.47;;
4194;SDS011;2111;48.050;11.626;2022-08-19T09:11:50;4.53;;;4.05;;
4194;SDS011;2111;48.050;11.626;2022-08-19T09:15:07;4.50;;;3.78;;
4194;SDS011;2111;48.050;11.626;2022-08-19T09:17:18;8.00;;;5.95;;
4194;SDS011;2111;48.050;11.626;2022-08-19T09:19:54;5.07;;;4.00;;
4194;SDS011;2111;48.050;11.626;2022-08-19T09:22:23;6.50;;;5.60;;
4194;SDS011;2111;48.050;11.626;2022-08-19T09:24:52;5.22;;;4.57;;
4194;SDS011;2111;48.050;11.626;2022-08-19T09:27:20;7.03;;;6.30;;
4194;SDS011;2111;48.050;11.626;2022-08-19T09:30:08;5.20;;;4.65;;
4194;SDS011;2111;48.050;11.626;2022-08-19T09:32:41;7.30;;;6.25;;
4194;SDS011;2111;48.050;11.626;2022-08-19T09:35:09;6.20;;;5.20;;
4194;SDS011;2111;48.050;11.626;2022-08-19T09:37:37;5.70;;;4.82;;
4194;SDS011;2111;48.050;11.626;2022-08-19T09:40:05;5.32;;;4.68;;
4194;SDS011;2111;48.050;11.626;2022-08-19T09:42:34;6.22;;;4.82;;
4194;SDS011;2111;48.050;11.626;2022-08-19T09:45:01;7.00;;;6.30;;
4194;SDS011;2111;48.050;11.626;2022-08-19T09:47:35;6.47;;;4.97;;
4194;SDS011;2111;48.050;11.626;2022-08-19T09:50:06;6.47;;;5.32;;
4194;SDS011;2111;48.050;11.626;2022-08-19T09:52:35;6.88;;;5.35;;
4194;SDS011;2111;48.050;11.626;2022-08-19T09:55:08;6.93;;;4.65;;
4194;SDS011;2111;48.050;11.626;2022-08-19T09:57:35;7.15;;;5.72;;
4194;SDS011;2111;48.050;11.626;2022-08-19T10:00:04;6.90;;;5.05;;
4194;SDS011;2111;48.050;11.626;2022-08-19T10:02:33;5.88;;;5.25;;
4194;SDS011;2111;48.050;11.626;2022-08-19T10:05:00;7.13;;;5.05;;
4194;SDS011;2111;48.050;11.626;2022-08-19T10:07:52;5.13;;;4.57;;
4194;SDS011;2111;48.050;11.626;2022-08-19T10:10:21;8.38;;;6.93;;
4194;SDS011;2111;48.050;11.626;2022-08-19T10:12:49;6.53;;;5.75;;
4194;SDS011;2111;48.050;11.626;2022-08-19T10:15:16;8.88;;;5.55;;
4194;SDS011;2111;48.050;11.626;2022-08-19T10:17:54;6.60;;;5.07;;
4194;SDS011;2111;48.050;11.626;2022-08-19T10:20:23;5.90;;;4.63;;
4194;SDS011;2111;48.050;11.626;2022-08-19T10:22:51;6.55;;;5.13;;
4194;SDS011;2111;48.050;11.626;2022-08-19T10:25:18;8.27;;;6.47;;
4194;SDS011;2111;48.050;11.626;2022-08-19T10:27:45;4.93;;;3.88;;
4194;SDS011;2111;48.050;11.626;2022-08-19T10:30:16;5.65;;;5.05;;
4194;SDS011;2111;48.050;11.626;2022-08-19T10:32:45;4.30;;;3.35;;
4194;SDS011;2111;48.050;11.626;2022-08-19T10:35:13;4.68;;;3.15;;
4194;SDS011;2111;48.050;11.626;2022-08-19T10:37:47;3.90;;;3.47;;
4194;SDS011;2111;48.050;11.626;2022-08-19T10:40:27;3.65;;;3.33;;
4194;SDS011;2111;48.050;11.626;2022-08-19T10:42:54;5.47;;;4.68;;
4194;SDS011;2111;48.050;11.626;2022-08-19T10:45:22;5.75;;;4.68;;
4194;SDS011;2111;48.050;11.626;2022-08-19T10:47:53;3.33;;;3.03;;
4194;SDS011;2111;48.050;11.626;2022-08-19T10:50:20;2.50;;;2.30;;
4194;SDS011;2111;48.050;11.626;2022-08-19T10:53:07;3.65;;;3.08;;
4194;SDS011;2111;48.050;11.626;2022-08-19T10:55:35;3.13;;;2.92;;
4194;SDS011;2111;48.050;11.626;2022-08-19T10:58:20;5.40;;;4.90;;
4194;SDS011;2111;48.050;11.626;2022-08-19T11:00:52;4.03;;;2.95;;
4194;SDS011;2111;48.050;11.626;2022-08-19T11:03:20;4.70;;;4.25;;
4194;SDS011;2111;48.050;11.626;2022-08-19T11:05:56;2.80;;;2.25;;
4194;SDS011;2111;48.050;11.626;2022-08-19T11:08:31;2.72;;;2.30;;
4194;SDS011;2111;48.050;11.626;2022-08-19T11:11:01;2.60;;;2.40;;
4194;SDS011;2111;48.050;11.626;2022-08-19T11:13:36;2.08;;;1.98;;
4194;SDS011;2111;48.050;11.626;2022-08-19T11:16:08;2.70;;;2.35;;
4194;SDS011;2111;48.050;11.626;2022-08-19T11:18:46;3.60;;;2.67;;
4194;SDS011;2111;48.050;11.626;2022-08-19T11:21:18;4.03;;;3.58;;
4194;SDS011;2111;48.050;11.626;2022-08-19T11:23:48;3.17;;;2.47;;
4194;SDS011;2111;48.050;11.626;2022-08-19T11:26:17;1.88;;;1.77;;
4194;SDS011;2111;48.050;11.626;2022-08-19T11:28:45;2.22;;;1.70;;
4194;SDS011;2111;48.050;11.626;2022-08-19T11:31:17;4.03;;;3.67;;
4194;SDS011;2111;48.050;11.626;2022-08-19T11:33:45;1.85;;;1.65;;
4194;SDS011;2111;48.050;11.626;2022-08-19T11:36:20;1.80;;;1.70;;
4194;SDS011;2111;48.050;11.626;2022-08-19T11:38:48;1.65;;;1.50;;
4194;SDS011;2111;48.050;11.626;2022-08-19T11:41:17;1.70;;;1.60;;
4194;SDS011;2111;48.050;11.626;2022-08-19T11:43:46;1.70;;;1.52;;
4194;SDS011;2111;48.050;11.626;2022-08-19T11:46:14;2.92;;;2.72;;
4194;SDS011;2111;48.050;11.626;2022-08-19T11:48:42;2.15;;;1.73;;
4194;SDS011;2111;48.050;11.626;2022-08-19T11:51:12;1.88;;;1.70;;
4194;SDS011;2111;48.050;11.626;2022-08-19T11:53:39;1.70;;;1.60;;
4194;SDS011;2111;48.050;11.626;2022-08-19T11:56:07;2.03;;;1.70;;
4194;SDS011;2111;48.050;11.626;2022-08-19T11:58:34;1.70;;;1.60;;
4194;SDS011;2111;48.050;11.626;2022-08-19T12:01:05;4.05;;;3.65;;
4194;SDS011;2111;48.050;11.626;2022-08-19T12:03:33;2.58;;;2.28;;
4194;SDS011;2111;48.050;11.626;2022-08-19T12:06:04;3.63;;;3.33;;
4194;SDS011;2111;48.050;11.626;2022-08-19T12:08:35;4.15;;;3.10;;
4194;SDS011;2111;48.050;11.626;2022-08-19T12:11:02;5.35;;;3.38;;
4194;SDS011;2111;48.050;11.626;2022-08-19T12:13:30;4.57;;;3.75;;
4194;SDS011;2111;48.050;11.626;2022-08-19T12:15:57;3.58;;;2.85;;
4194;SDS011;2111;48.050;11.626;2022-08-19T12:18:24;5.75;;;5.15;;
4194;SDS011;2111;48.050;11.626;2022-08-19T12:20:52;3.45;;;3.15;;
4194;SDS011;2111;48.050;11.626;2022-08-19T12:23:20;5.15;;;4.43;;
4194;SDS011;2111;48.050;11.626;2022-08-19T12:25:48;3.40;;;3.10;;
4194;SDS011;2111;48.050;11.626;2022-08-19T12:28:23;5.20;;;4.72;;
4194;SDS011;2111;48.050;11.626;2022-08-19T12:30:51;4.03;;;3.42;;
4194;SDS011;2111;48.050;11.626;2022-08-19T12:33:18;4.93;;;4.43;;
4194;SDS011;2111;48.050;11.626;2022-08-19T12:35:50;3.10;;;2.60;;
4194;SDS011;2111;48.050;11.626;2022-08-19T12:38:18;2.45;;;2.22;;
4194;SDS011;2111;48.050;11.626;2022-08-19T12:40:46;4.00;;;1.95;;
4194;SDS011;2111;48.050;11.626;2022-08-19T12:43:14;2.40;;;2.20;;
4194;SDS011;2111;48.050;11.626;2022-08-19T12:45:42;2.08;;;1.55;;
4194;SDS011;2111;48.050;11.626;2022-08-19T12:48:12;2.25;;;2.08;;
4194;SDS011;2111;48.050;11.626;2022-08-19T12:50:59;1.20;;;1.10;;
4194;SDS011;2111;48.050;11.626;2022-08-19T12:53:27;3.25;;;2.95;;
4194;SDS011;2111;48.050;11.626;2022-08-19T12:55:55;2.92;;;1.40;;
4194;SDS011;2111;48.050;11.626;2022-08-19T12:58:23;3.17;;;2.80;;
4194;SDS011;2111;48.050;11.626;2022-08-19T13:00:52;1.20;;;0.93;;
4194;SDS011;2111;48.050;11.626;2022-08-19T13:03:19;2.78;;;2.55;;
4194;SDS011;2111;48.050;11.626;2022-08-19T13:05:50;0.60;;;0.60;;
4194;SDS011;2111;48.050;11.626;2022-08-19T13:08:17;2.40;;;2.20;;
4194;SDS011;2111;48.050;11.626;2022-08-19T13:10:51;1.00;;;0.90;;
4194;SDS011;2111;48.050;11.626;2022-08-19T13:13:19;0.80;;;0.80;;
4194;SDS011;2111;48.050;11.626;2022-08-19T13:15:46;1.42;;;1.05;;
4194;SDS011;2111;48.050;11.626;2022-08-19T13:18:13;2.25;;;2.05;;
4194;SDS011;2111;48.050;11.626;2022-08-19T13:20:40;0.50;;;0.50;;
4194;SDS011;2111;48.050;11.626;2022-08-19T13:23:17;1.20;;;0.57;;
4194;SDS011;2111;48.050;11.626;2022-08-19T13:25:44;0.60;;;0.60;;
4194;SDS011;2111;48.050;11.626;2022-08-19T13:28:13;1.95;;;0.52;;
4194;SDS011;2111;48.050;11.626;2022-08-19T13:30:41;0.50;;;0.40;;
4194;SDS011;2111;48.050;11.626;2022-08-19T13:33:27;2.25;;;0.52;;
4194;SDS011;2111;48.050;11.626;2022-08-19T13:35:58;0.93;;;0.60;;
4194;SDS011;2111;48.050;11.626;2022-08-19T13:38:27;0.60;;;0.60;;
4194;SDS011;2111;48.050;11.626;2022-08-19T13:40:56;1.13;;;1.02;;
4194;SDS011;2111;48.050;11.626;2022-08-19T13:43:37;0.60;;;0.60;;
4194;SDS011;2111;48.050;11.626;2022-08-19T13:46:08;0.70;;;0.70;;
4194;SDS011;2111;48.050;11.626;2022-08-19T13:48:36;0.50;;;0.50;;
4194;SDS011;2111;48.050;11.626;2022-08-19T13:51:04;0.98;;;0.57;;
4194;SDS011;2111;48.050;11.626;2022-08-19T13:53:31;0.52;;;0.52;;
4194;SDS011;2111;48.050;11.626;2022-08-19T13:55:57;0.50;;;0.50;;
4194;SDS011;2111;48.050;11.626;2022-08-19T13:58:24;2.78;;;2.58;;
4194;SDS011;2111;48.050;11.626;2022-08-19T14:00:51;0.50;;;0.50;;
4194;SDS011;2111;48.050;11.626;2022-08-19T14:03:18;0.70;;;0.70;;
4194;SDS011;2111;48.050;11.626;2022-08-19T14:05:45;0.55;;;0.55;;
4194;SDS011;2111;48.050;11.626;2022-08-19T14:08:12;3.67;;;3.38;;
4194;SDS011;2111;48.050;11.626;2022-08-19T14:10:40;2.70;;;1.75;;
4194;SDS011;2111;48.050;11.626;2022-08-19T14:13:08;2.10;;;1.90;;
4194;SDS011;2111;48.050;11.626;2022-08-19T14:15:35;0.70;;;0.70;;
4194;SDS011;2111;48.050;11.626;2022-08-19T14:18:03;1.70;;;1.60;;
4194;SDS011;2111;48.050;11.626;2022-08-19T14:20:29;0.50;;;0.50;;
4194;SDS011;2111;48.050;11.626;2022-08-19T14:22:56;2.35;;;2.15;;
4194;SDS011;2111;48.050;11.626;2022-08-19T14:25:25;2.35;;;2.15;;
4194;SDS011;2111;48.050;11.626;2022-08-19T14:27:53;0.80;;;0.75;;
4194;SDS011;2111;48.050;11.626;2022-08-19T14:30:25;0.70;;;0.70;;
4194;SDS011;2111;48.050;11.626;2022-08-19T14:32:54;0.80;;;0.80;;
4194;SDS011;2111;48.050;11.626;2022-08-19T14:35:21;2.65;;;2.45;;
4194;SDS011;2111;48.050;11.626;2022-08-19T14:37:49;1.33;;;0.80;;
4194;SDS011;2111;48.050;11.626;2022-08-19T14:40:17;1.98;;;1.88;;
4194;SDS011;2111;48.050;11.626;2022-08-19T14:42:47;0.80;;;0.68;;
4194;SDS011;2111;48.050;11.626;2022-08-19T14:45:14;2.28;;;2.08;;
4194;SDS011;2111;48.050;11.626;2022-08-19T14:47:41;2.47;;;2.28;;
4194;SDS011;2111;48.050;11.626;2022-08-19T14:50:10;1.75;;;1.60;;
4194;SDS011;2111;48.050;11.626;2022-08-19T14:52:44;0.90;;;0.85;;
4194;SDS011;2111;48.050;11.626;2022-08-19T14:55:15;0.63;;;0.63;;
4194;SDS011;2111;48.050;11.626;2022-08-19T14:57:42;0.63;;;0.63;;
4194;SDS011;2111;48.050;11.626;2022-08-19T15:00:10;0.75;;;0.50;;
4194;SDS011;2111;48.050;11.626;2022-08-19T15:02:39;0.50;;;0.50;;
4194;SDS011;2111;48.050;11.626;2022-08-19T15:05:07;1.63;;;1.52;;
4194;SDS011;2111;48.050;11.626;2022-08-19T15:07:34;0.63;;;0.63;;
4194;SDS011;2111;48.050;11.626;2022-08-19T15:10:00;0.50;;;0.50;;
4194;SDS011;2111;48.050;11.626;2022-08-19T15:12:28;0.57;;;0.52;;
4194;SDS011;2111;48.050;11.626;2022-08-19T15:14:55;0.60;;;0.60;;
4194;SDS011;2111;48.050;11.626;2022-08-19T15:17:22;1.27;;;1.20;;
4194;SDS011;2111;48.050;11.626;2022-08-19T15:20:11;0.50;;;0.50;;
4194;SDS011;2111;48.050;11.626;2022-08-19T15:22:39;2.17;;;1.98;;
4194;SDS011;2111;48.050;11.626;2022-08-19T15:25:06;1.00;;;0.90;;
4194;SDS011;2111;48.050;11.626;2022-08-19T15:27:36;0.75;;;0.75;;
4194;SDS011;2111;48.050;11.626;2022-08-19T15:30:06;3.30;;;3.00;;
4194;SDS011;2111;48.050;11.626;2022-08-19T15:32:34;0.93;;;0.82;;
4194;SDS011;2111;48.050;11.626;2022-08-19T15:35:02;2.35;;;2.15;;
4194;SDS011;2111;48.050;11.626;2022-08-19T15:37:31;0.90;;;0.90;;
4194;SDS011;2111;48.050;11.626;2022-08-19T15:40:03;0.90;;;0.90;;
4194;SDS011;2111;48.050;11.626;2022-08-19T15:42:30;0.80;;;0.80;;
4194;SDS011;2111;48.050;11.626;2022-08-19T15:45:13;1.10;;;1.00;;